메인 페이지
METAR-TAF:

METAR-TAF

공항 :

암리차르, 인도

위도: 31-38N, 경도: 074-52E, 고도: 229m

현재 날씨관측

예보는 39분 전, 10:00시(UTC)에 발표되었습니다.
서북서6kt
온도 21°C
습도 30%
기압 1022 hPa
시정: 5000m
연무

METAR: VIAR 151000Z 29006KT 5000 HZ NSC 21/03 Q1022 NOSIG

시각: 16:09 (10:39 UTC)

예보

예보는 5 시간 39분 전, 05:00시(UTC)에 발표되었습니다.
예보 대상 시간: 15일 06시부터 16일 12시까지 (UTC)
서북서4kt
시정: 3500m
연무
전환 중
15일 08시부터 15일 09시까지 (UTC)
북서8kt
시정: 5000m
연무
전환 중
15일 13시부터 15일 15시까지 (UTC)
서북서3kt
시정: 3000m
연무, 박무
전환 중
15일 18시부터 15일 20시까지 (UTC)
kt
시정: 2000m
박무
전환 중
16일 00시부터 16일 02시까지 (UTC)
시정: 1000m
고도 10000ft 상공 구름 조금
박무
전환 중
16일 04시부터 16일 06시까지 (UTC)
5kt
시정: 2500m
박무, 연무
전환 중
16일 08시부터 16일 09시까지 (UTC)
서북서8kt
시정: 5000m
연무

TAF: VIAR 150500Z 1506/1612 29004KT 3500 HZ NSC BECMG 1508/1509 32008KT 5000 HZ BECMG 1513/1515 29003KT 3000 HZ BR BECMG 1518/1520 00000KT 2000 BR BECMG 1600/1602 1000 BR FEW100 BECMG 1604/1606 27005KT 2500 BR HZ NSC BECMG 1608/1609 30008KT 5000 HZ

4,000개 이상의 공항 관측 자료 및 예보 (METAR 및 TAF 보고).

지도상에서 검색 가능한 기상관측소가 노란 점과 빨간 점으로 표시되어 있습니다.

기상관측소 명을 보려면 표시 위로 마우스를 이동하세요.

날씨 관측과 예보를 보려면 클릭하세요.

지도 변경 : 확대하려면 엑스 표시가 있는 녹색 버튼, 축소하려면 빼기 표시가 있는 녹색 버튼, 다음 페이지의 지도를 보려면 녹색 화살표를 클릭하세요.


METAR-TAF: